sensor_id;sensor_type;location;lat;lon;timestamp;temperature;humidity
45383;DHT22;42455;51.660;5.824;2024-03-23T00:56:20;9.7;96.0
45383;DHT22;42455;51.660;5.824;2024-03-23T01:01:26;9.7;96.0
45383;DHT22;42455;51.660;5.824;2024-03-23T01:06:33;9.7;96.0
45383;DHT22;42455;51.660;5.824;2024-03-23T01:11:39;9.7;96.0
45383;DHT22;42455;51.660;5.824;2024-03-23T01:16:45;9.7;96.0
45383;DHT22;42455;51.660;5.824;2024-03-23T01:21:51;9.7;96.0
45383;DHT22;42455;51.660;5.824;2024-03-23T01:26:57;9.6;96.5
45383;DHT22;42455;51.660;5.824;2024-03-23T01:32:04;9.6;96.5
45383;DHT22;42455;51.660;5.824;2024-03-23T01:37:09;9.6;96.5
45383;DHT22;42455;51.660;5.824;2024-03-23T01:42:15;9.6;96.5
45383;DHT22;42455;51.660;5.824;2024-03-23T01:47:21;9.6;96.5
45383;DHT22;42455;51.660;5.824;2024-03-23T01:52:28;9.5;96.5
45383;DHT22;42455;51.660;5.824;2024-03-23T01:57:34;9.5;96.5
45383;DHT22;42455;51.660;5.824;2024-03-23T02:02:42;9.5;96.5
45383;DHT22;42455;51.660;5.824;2024-03-23T02:07:46;9.5;96.5
45383;DHT22;42455;51.660;5.824;2024-03-23T02:12:52;9.5;96.5
45383;DHT22;42455;51.660;5.824;2024-03-23T02:17:59;9.4;96.5
45383;DHT22;42455;51.660;5.824;2024-03-23T02:23:05;9.4;96.5
45383;DHT22;42455;51.660;5.824;2024-03-23T02:28:11;9.4;96.5
45383;DHT22;42455;51.660;5.824;2024-03-23T02:33:17;9.4;96.5
45383;DHT22;42455;51.660;5.824;2024-03-23T02:38:23;9.4;96.5
45383;DHT22;42455;51.660;5.824;2024-03-23T02:43:30;9.4;96.5
45383;DHT22;42455;51.660;5.824;2024-03-23T02:48:36;9.3;96.5
45383;DHT22;42455;51.660;5.824;2024-03-23T02:53:42;9.3;96.5
45383;DHT22;42455;51.660;5.824;2024-03-23T02:58:48;9.3;96.5
45383;DHT22;42455;51.660;5.824;2024-03-23T03:03:54;9.3;96.5
45383;DHT22;42455;51.660;5.824;2024-03-23T03:09:01;9.3;96.5
45383;DHT22;42455;51.660;5.824;2024-03-23T03:14:07;9.3;96.5
45383;DHT22;42455;51.660;5.824;2024-03-23T03:19:13;9.3;96.5
45383;DHT22;42455;51.660;5.824;2024-03-23T03:24:19;9.2;96.5
45383;DHT22;42455;51.660;5.824;2024-03-23T03:29:25;9.2;96.5
45383;DHT22;42455;51.660;5.824;2024-03-23T03:34:32;9.2;96.5
45383;DHT22;42455;51.660;5.824;2024-03-23T03:39:38;9.2;96.5
45383;DHT22;42455;51.660;5.824;2024-03-23T03:44:44;9.2;97.0
45383;DHT22;42455;51.660;5.824;2024-03-23T03:49:50;9.2;97.0
45383;DHT22;42455;51.660;5.824;2024-03-23T03:55:01;9.2;97.0
45383;DHT22;42455;51.660;5.824;2024-03-23T04:00:03;9.2;97.0
45383;DHT22;42455;51.660;5.824;2024-03-23T04:05:09;9.1;97.0
45383;DHT22;42455;51.660;5.824;2024-03-23T04:10:15;9.2;97.0
45383;DHT22;42455;51.660;5.824;2024-03-23T04:15:21;9.2;97.0
45383;DHT22;42455;51.660;5.824;2024-03-23T04:20:27;9.1;97.0
45383;DHT22;42455;51.660;5.824;2024-03-23T04:25:34;9.1;97.0
45383;DHT22;42455;51.660;5.824;2024-03-23T04:30:40;9.1;97.0
45383;DHT22;42455;51.660;5.824;2024-03-23T04:35:48;9.1;97.0
45383;DHT22;42455;51.660;5.824;2024-03-23T04:40:54;9.0;97.0
45383;DHT22;42455;51.660;5.824;2024-03-23T04:45:59;9.0;97.0
45383;DHT22;42455;51.660;5.824;2024-03-23T04:51:05;8.9;96.5
45383;DHT22;42455;51.660;5.824;2024-03-23T04:56:11;8.8;96.5
45383;DHT22;42455;51.660;5.824;2024-03-23T05:01:17;8.8;96.5
45383;DHT22;42455;51.660;5.824;2024-03-23T05:06:24;8.7;96.5
45383;DHT22;42455;51.660;5.824;2024-03-23T05:11:30;8.6;96.5
45383;DHT22;42455;51.660;5.824;2024-03-23T05:16:36;8.6;96.5
45383;DHT22;42455;51.660;5.824;2024-03-23T05:21:42;8.5;96.5
45383;DHT22;42455;51.660;5.824;2024-03-23T05:26:48;8.4;96.0
45383;DHT22;42455;51.660;5.824;2024-03-23T05:31:54;8.4;96.0
45383;DHT22;42455;51.660;5.824;2024-03-23T05:37:01;8.3;96.0
45383;DHT22;42455;51.660;5.824;2024-03-23T05:42:07;8.2;96.0
45383;DHT22;42455;51.660;5.824;2024-03-23T05:47:13;8.2;96.0
45383;DHT22;42455;51.660;5.824;2024-03-23T05:52:19;8.1;96.0
45383;DHT22;42455;51.660;5.824;2024-03-23T05:57:25;8.0;96.0
45383;DHT22;42455;51.660;5.824;2024-03-23T06:02:32;8.0;96.0
45383;DHT22;42455;51.660;5.824;2024-03-23T06:07:38;7.9;96.5
45383;DHT22;42455;51.660;5.824;2024-03-23T06:12:45;7.9;96.5
45383;DHT22;42455;51.660;5.824;2024-03-23T06:17:50;7.9;96.5
45383;DHT22;42455;51.660;5.824;2024-03-23T06:22:56;7.9;96.5
45383;DHT22;42455;51.660;5.824;2024-03-23T06:28:03;7.9;96.5
45383;DHT22;42455;51.660;5.824;2024-03-23T06:33:09;7.9;96.5
45383;DHT22;42455;51.660;5.824;2024-03-23T06:38:15;8.0;97.0
45383;DHT22;42455;51.660;5.824;2024-03-23T06:43:21;8.1;97.0
45383;DHT22;42455;51.660;5.824;2024-03-23T06:48:28;8.2;97.5
45383;DHT22;42455;51.660;5.824;2024-03-23T06:53:34;8.4;97.5
45383;DHT22;42455;51.660;5.824;2024-03-23T06:58:40;8.6;97.5
45383;DHT22;42455;51.660;5.824;2024-03-23T07:03:46;8.8;97.5
45383;DHT22;42455;51.660;5.824;2024-03-23T07:08:52;9.1;97.5
45383;DHT22;42455;51.660;5.824;2024-03-23T07:13:58;9.3;97.5
45383;DHT22;42455;51.660;5.824;2024-03-23T07:19:04;9.4;97.0
45383;DHT22;42455;51.660;5.824;2024-03-23T07:24:11;9.4;96.5
45383;DHT22;42455;51.660;5.824;2024-03-23T07:29:16;9.4;96.0
45383;DHT22;42455;51.660;5.824;2024-03-23T07:34:22;9.5;96.5
45383;DHT22;42455;51.660;5.824;2024-03-23T07:39:29;9.7;96.0
45383;DHT22;42455;51.660;5.824;2024-03-23T07:44:35;9.8;96.0
45383;DHT22;42455;51.660;5.824;2024-03-23T07:49:41;9.9;95.5
45383;DHT22;42455;51.660;5.824;2024-03-23T07:54:47;10.0;95.5
45383;DHT22;42455;51.660;5.824;2024-03-23T07:59:53;10.1;95.0
45383;DHT22;42455;51.660;5.824;2024-03-23T08:05:00;10.1;94.5
45383;DHT22;42455;51.660;5.824;2024-03-23T08:10:06;10.2;94.5
45383;DHT22;42455;51.660;5.824;2024-03-23T08:15:12;10.3;94.5
45383;DHT22;42455;51.660;5.824;2024-03-23T08:20:18;10.5;94.5
45383;DHT22;42455;51.660;5.824;2024-03-23T08:25:24;10.6;94.5
45383;DHT22;42455;51.660;5.824;2024-03-23T08:30:31;10.7;94.0
45383;DHT22;42455;51.660;5.824;2024-03-23T08:35:38;10.8;94.0
45383;DHT22;42455;51.660;5.824;2024-03-23T08:40:43;10.9;93.5
45383;DHT22;42455;51.660;5.824;2024-03-23T08:45:49;11.0;93.5
45383;DHT22;42455;51.660;5.824;2024-03-23T08:50:59;11.1;93.5
45383;DHT22;42455;51.660;5.824;2024-03-23T08:56:03;11.2;93.0
45383;DHT22;42455;51.660;5.824;2024-03-23T09:01:09;11.3;93.0
45383;DHT22;42455;51.660;5.824;2024-03-23T09:06:14;11.4;92.5
45383;DHT22;42455;51.660;5.824;2024-03-23T09:11:20;11.4;91.5
45383;DHT22;42455;51.660;5.824;2024-03-23T09:16:27;11.3;91.0
45383;DHT22;42455;51.660;5.824;2024-03-23T09:21:33;11.1;90.5
45383;DHT22;42455;51.660;5.824;2024-03-23T09:26:39;11.0;90.5
45383;DHT22;42455;51.660;5.824;2024-03-23T09:31:45;11.1;91.0
45383;DHT22;42455;51.660;5.824;2024-03-23T09:36:51;11.2;90.5
45383;DHT22;42455;51.660;5.824;2024-03-23T09:41:58;11.1;90.0
45383;DHT22;42455;51.660;5.824;2024-03-23T09:47:04;10.9;89.0
45383;DHT22;42455;51.660;5.824;2024-03-23T09:52:10;10.7;89.0
45383;DHT22;42455;51.660;5.824;2024-03-23T09:57:16;10.5;89.5
45383;DHT22;42455;51.660;5.824;2024-03-23T10:02:23;10.4;90.5
45383;DHT22;42455;51.660;5.824;2024-03-23T10:07:29;10.5;91.5
45383;DHT22;42455;51.660;5.824;2024-03-23T10:12:35;10.7;91.5
45383;DHT22;42455;51.660;5.824;2024-03-23T10:17:41;10.9;92.0
45383;DHT22;42455;51.660;5.824;2024-03-23T10:22:48;11.1;92.5
45383;DHT22;42455;51.660;5.824;2024-03-23T10:27:58;11.4;92.5
45383;DHT22;42455;51.660;5.824;2024-03-23T10:33:07;11.5;91.0
45383;DHT22;42455;51.660;5.824;2024-03-23T10:38:07;11.6;90.5
45383;DHT22;42455;51.660;5.824;2024-03-23T10:43:12;11.7;90.5
45383;DHT22;42455;51.660;5.824;2024-03-23T10:48:18;11.8;90.0
45383;DHT22;42455;51.660;5.824;2024-03-23T10:53:26;11.9;89.5
45383;DHT22;42455;51.660;5.824;2024-03-23T10:58:33;12.1;88.5
45383;DHT22;42455;51.660;5.824;2024-03-23T11:03:38;12.1;87.5
45383;DHT22;42455;51.660;5.824;2024-03-23T11:08:43;12.1;87.0
45383;DHT22;42455;51.660;5.824;2024-03-23T11:13:50;12.0;85.5
45383;DHT22;42455;51.660;5.824;2024-03-23T11:19:33;12.0;86.0
45383;DHT22;42455;51.660;5.824;2024-03-23T11:24:13;12.1;86.0
45383;DHT22;42455;51.660;5.824;2024-03-23T11:29:08;12.1;85.5
45383;DHT22;42455;51.660;5.824;2024-03-23T11:34:15;12.2;86.0
45383;DHT22;42455;51.660;5.824;2024-03-23T11:39:20;12.4;86.0
45383;DHT22;42455;51.660;5.824;2024-03-23T11:44:27;12.4;84.5
45383;DHT22;42455;51.660;5.824;2024-03-23T11:49:33;12.1;83.5
45383;DHT22;42455;51.660;5.824;2024-03-23T11:54:39;11.8;84.0
45383;DHT22;42455;51.660;5.824;2024-03-23T11:59:45;11.6;84.0
45383;DHT22;42455;51.660;5.824;2024-03-23T12:04:51;11.4;84.5
45383;DHT22;42455;51.660;5.824;2024-03-23T12:10:05;11.3;85.5
45383;DHT22;42455;51.660;5.824;2024-03-23T12:15:05;11.5;86.5
45383;DHT22;42455;51.660;5.824;2024-03-23T12:20:10;11.5;85.5
45383;DHT22;42455;51.660;5.824;2024-03-23T12:25:16;11.4;84.5
45383;DHT22;42455;51.660;5.824;2024-03-23T12:30:22;11.2;84.0
45383;DHT22;42455;51.660;5.824;2024-03-23T12:35:29;10.9;84.5
45383;DHT22;42455;51.660;5.824;2024-03-23T12:40:34;10.9;86.5
45383;DHT22;42455;51.660;5.824;2024-03-23T12:50:46;11.2;87.0
45383;DHT22;42455;51.660;5.824;2024-03-23T12:55:53;11.3;86.5
45383;DHT22;42455;51.660;5.824;2024-03-23T13:00:59;11.3;85.5
45383;DHT22;42455;51.660;5.824;2024-03-23T13:06:05;11.2;84.5
45383;DHT22;42455;51.660;5.824;2024-03-23T13:11:10;10.9;85.0
45383;DHT22;42455;51.660;5.824;2024-03-23T13:16:16;10.7;85.0
45383;DHT22;42455;51.660;5.824;2024-03-23T13:21:23;10.7;87.5
45383;DHT22;42455;51.660;5.824;2024-03-23T13:26:29;10.8;88.5
45383;DHT22;42455;51.660;5.824;2024-03-23T13:31:35;10.9;88.0
45383;DHT22;42455;51.660;5.824;2024-03-23T13:36:41;10.9;87.5
45383;DHT22;42455;51.660;5.824;2024-03-23T13:41:47;10.9;87.0
45383;DHT22;42455;51.660;5.824;2024-03-23T13:46:54;10.8;87.0
45383;DHT22;42455;51.660;5.824;2024-03-23T13:52:00;10.9;88.5
45383;DHT22;42455;51.660;5.824;2024-03-23T13:57:06;11.1;89.0
45383;DHT22;42455;51.660;5.824;2024-03-23T14:02:12;11.3;88.5
45383;DHT22;42455;51.660;5.824;2024-03-23T14:07:18;11.4;87.5
45383;DHT22;42455;51.660;5.824;2024-03-23T14:12:25;11.4;87.0
45383;DHT22;42455;51.660;5.824;2024-03-23T14:17:31;11.4;86.5
45383;DHT22;42455;51.660;5.824;2024-03-23T14:22:37;11.3;86.5
45383;DHT22;42455;51.660;5.824;2024-03-23T14:27:44;11.4;87.5
45383;DHT22;42455;51.660;5.824;2024-03-23T14:32:49;11.6;87.5
45383;DHT22;42455;51.660;5.824;2024-03-23T14:37:56;11.7;86.0
45383;DHT22;42455;51.660;5.824;2024-03-23T14:43:02;11.6;85.5
45383;DHT22;42455;51.660;5.824;2024-03-23T14:48:08;11.6;86.0
45383;DHT22;42455;51.660;5.824;2024-03-23T14:53:14;11.6;85.0
45383;DHT22;42455;51.660;5.824;2024-03-23T14:58:21;11.5;85.0
45383;DHT22;42455;51.660;5.824;2024-03-23T15:03:27;11.5;84.5
45383;DHT22;42455;51.660;5.824;2024-03-23T15:08:33;11.4;84.5
45383;DHT22;42455;51.660;5.824;2024-03-23T15:13:39;11.3;84.5
45383;DHT22;42455;51.660;5.824;2024-03-23T15:18:45;11.3;84.5
45383;DHT22;42455;51.660;5.824;2024-03-23T15:23:52;11.3;84.5
45383;DHT22;42455;51.660;5.824;2024-03-23T15:28:58;11.2;84.0
45383;DHT22;42455;51.660;5.824;2024-03-23T15:34:04;11.0;83.5
45383;DHT22;42455;51.660;5.824;2024-03-23T15:39:10;10.8;83.5
45383;DHT22;42455;51.660;5.824;2024-03-23T15:44:16;10.7;83.5
45383;DHT22;42455;51.660;5.824;2024-03-23T15:49:23;10.6;83.0
45383;DHT22;42455;51.660;5.824;2024-03-23T15:54:29;10.5;83.0
45383;DHT22;42455;51.660;5.824;2024-03-23T15:59:35;10.4;83.0
45383;DHT22;42455;51.660;5.824;2024-03-23T16:04:42;10.3;83.0
45383;DHT22;42455;51.660;5.824;2024-03-23T16:09:47;10.2;83.5
45383;DHT22;42455;51.660;5.824;2024-03-23T16:14:54;10.2;83.5
45383;DHT22;42455;51.660;5.824;2024-03-23T16:20:00;10.1;83.5
45383;DHT22;42455;51.660;5.824;2024-03-23T16:25:06;10.0;83.5
45383;DHT22;42455;51.660;5.824;2024-03-23T16:30:13;10.0;84.0
45383;DHT22;42455;51.660;5.824;2024-03-23T16:35:18;10.0;84.0
45383;DHT22;42455;51.660;5.824;2024-03-23T16:40:25;9.9;83.5
45383;DHT22;42455;51.660;5.824;2024-03-23T16:45:31;9.8;84.0
45383;DHT22;42455;51.660;5.824;2024-03-23T16:50:37;9.7;84.5
45383;DHT22;42455;51.660;5.824;2024-03-23T16:55:43;9.7;84.5
45383;DHT22;42455;51.660;5.824;2024-03-23T17:00:50;9.6;84.5
45383;DHT22;42455;51.660;5.824;2024-03-23T17:05:56;9.6;84.5
45383;DHT22;42455;51.660;5.824;2024-03-23T17:11:03;9.5;84.5
45383;DHT22;42455;51.660;5.824;2024-03-23T17:16:08;9.3;84.5
45383;DHT22;42455;51.660;5.824;2024-03-23T17:21:14;9.3;84.5
45383;DHT22;42455;51.660;5.824;2024-03-23T17:26:21;9.2;85.0
45383;DHT22;42455;51.660;5.824;2024-03-23T17:31:27;9.0;85.0
45383;DHT22;42455;51.660;5.824;2024-03-23T17:36:33;9.0;85.0
45383;DHT22;42455;51.660;5.824;2024-03-23T17:46:45;8.7;85.5
45383;DHT22;42455;51.660;5.824;2024-03-23T17:51:52;8.6;86.0
45383;DHT22;42455;51.660;5.824;2024-03-23T17:56:58;8.5;86.0
45383;DHT22;42455;51.660;5.824;2024-03-23T18:07:10;8.4;86.5
45383;DHT22;42455;51.660;5.824;2024-03-23T18:12:16;8.3;87.0
45383;DHT22;42455;51.660;5.824;2024-03-23T18:17:23;8.3;87.5
45383;DHT22;42455;51.660;5.824;2024-03-23T18:22:29;8.2;87.5
45383;DHT22;42455;51.660;5.824;2024-03-23T18:27:35;8.2;88.0
45383;DHT22;42455;51.660;5.824;2024-03-23T18:32:41;8.2;88.0
45383;DHT22;42455;51.660;5.824;2024-03-23T18:37:47;8.2;88.5
45383;DHT22;42455;51.660;5.824;2024-03-23T18:42:53;8.2;88.5
45383;DHT22;42455;51.660;5.824;2024-03-23T18:47:59;8.2;88.5
45383;DHT22;42455;51.660;5.824;2024-03-23T18:53:05;8.2;88.5
45383;DHT22;42455;51.660;5.824;2024-03-23T18:58:11;8.2;89.0
45383;DHT22;42455;51.660;5.824;2024-03-23T19:03:17;8.2;89.5
45383;DHT22;42455;51.660;5.824;2024-03-23T19:08:24;8.2;89.5
45383;DHT22;42455;51.660;5.824;2024-03-23T19:13:30;8.2;89.5
45383;DHT22;42455;51.660;5.824;2024-03-23T19:18:36;8.2;89.5
45383;DHT22;42455;51.660;5.824;2024-03-23T19:23:42;8.2;89.5
45383;DHT22;42455;51.660;5.824;2024-03-23T19:28:49;8.1;89.5
45383;DHT22;42455;51.660;5.824;2024-03-23T19:33:55;8.1;89.5
45383;DHT22;42455;51.660;5.824;2024-03-23T19:39:01;8.1;89.5
45383;DHT22;42455;51.660;5.824;2024-03-23T19:44:07;8.0;89.5
45383;DHT22;42455;51.660;5.824;2024-03-23T19:49:13;8.0;89.5
45383;DHT22;42455;51.660;5.824;2024-03-23T19:54:20;7.9;89.5
45383;DHT22;42455;51.660;5.824;2024-03-23T19:59:26;7.9;90.0
45383;DHT22;42455;51.660;5.824;2024-03-23T20:04:32;7.8;90.0
45383;DHT22;42455;51.660;5.824;2024-03-23T20:09:38;7.8;90.0
45383;DHT22;42455;51.660;5.824;2024-03-23T20:14:44;7.8;90.0
45383;DHT22;42455;51.660;5.824;2024-03-23T20:19:51;7.7;90.0
45383;DHT22;42455;51.660;5.824;2024-03-23T20:24:57;7.7;90.0
45383;DHT22;42455;51.660;5.824;2024-03-23T20:30:03;7.7;90.0
45383;DHT22;42455;51.660;5.824;2024-03-23T20:35:09;7.6;90.5
45383;DHT22;42455;51.660;5.824;2024-03-23T20:40:15;7.5;90.5
45383;DHT22;42455;51.660;5.824;2024-03-23T20:45:22;7.5;90.5
45383;DHT22;42455;51.660;5.824;2024-03-23T20:50:28;7.5;90.5
45383;DHT22;42455;51.660;5.824;2024-03-23T20:55:34;7.4;90.5
45383;DHT22;42455;51.660;5.824;2024-03-23T21:00:40;7.4;91.0
45383;DHT22;42455;51.660;5.824;2024-03-23T21:05:51;7.4;91.0
45383;DHT22;42455;51.660;5.824;2024-03-23T21:10:55;7.3;91.0
45383;DHT22;42455;51.660;5.824;2024-03-23T21:15:59;7.3;91.0
45383;DHT22;42455;51.660;5.824;2024-03-23T21:21:05;7.3;91.0
45383;DHT22;42455;51.660;5.824;2024-03-23T21:26:11;7.3;91.0
45383;DHT22;42455;51.660;5.824;2024-03-23T21:31:18;7.2;91.0
45383;DHT22;42455;51.660;5.824;2024-03-23T21:36:24;7.2;91.0
45383;DHT22;42455;51.660;5.824;2024-03-23T21:41:30;7.2;91.0
45383;DHT22;42455;51.660;5.824;2024-03-23T21:46:36;7.1;91.0
45383;DHT22;42455;51.660;5.824;2024-03-23T21:51:42;7.1;91.5
45383;DHT22;42455;51.660;5.824;2024-03-23T21:56:49;7.0;91.5
45383;DHT22;42455;51.660;5.824;2024-03-23T22:01:55;7.0;91.5
45383;DHT22;42455;51.660;5.824;2024-03-23T22:07:01;7.0;91.5
45383;DHT22;42455;51.660;5.824;2024-03-23T22:12:07;7.0;91.5
45383;DHT22;42455;51.660;5.824;2024-03-23T22:17:13;6.9;91.5
45383;DHT22;42455;51.660;5.824;2024-03-23T22:22:20;6.9;91.5
45383;DHT22;42455;51.660;5.824;2024-03-23T22:27:26;6.9;91.5
45383;DHT22;42455;51.660;5.824;2024-03-23T22:32:32;6.9;91.5
45383;DHT22;42455;51.660;5.824;2024-03-23T22:37:39;6.9;91.5
45383;DHT22;42455;51.660;5.824;2024-03-23T22:42:44;6.9;92.0
45383;DHT22;42455;51.660;5.824;2024-03-23T22:47:51;6.9;92.0
45383;DHT22;42455;51.660;5.824;2024-03-23T22:52:57;6.9;92.0
45383;DHT22;42455;51.660;5.824;2024-03-23T22:58:03;6.9;92.0
45383;DHT22;42455;51.660;5.824;2024-03-23T23:03:10;6.9;92.0
45383;DHT22;42455;51.660;5.824;2024-03-23T23:08:15;6.9;92.5
45383;DHT22;42455;51.660;5.824;2024-03-23T23:13:22;6.9;92.5
45383;DHT22;42455;51.660;5.824;2024-03-23T23:18:28;6.9;92.5
45383;DHT22;42455;51.660;5.824;2024-03-23T23:23:34;6.9;92.5
45383;DHT22;42455;51.660;5.824;2024-03-23T23:28:40;6.9;93.0
45383;DHT22;42455;51.660;5.824;2024-03-23T23:33:47;7.0;93.0
45383;DHT22;42455;51.660;5.824;2024-03-23T23:38:53;7.0;93.0
45383;DHT22;42455;51.660;5.824;2024-03-23T23:43:59;7.0;93.0
45383;DHT22;42455;51.660;5.824;2024-03-23T23:49:05;7.0;93.0
45383;DHT22;42455;51.660;5.824;2024-03-23T23:54:11;7.0;93.5
45383;DHT22;42455;51.660;5.824;2024-03-23T23:59:18;7.1;93.5
